LFLY/LYN METAR and TAF weather

Enter ICAO airport designator
Station Type Date Time Source
LFLY METAR 2020/06/03 16:30 UTC NOAA

LFLY 031630Z AUTO 22013KT 180V240 9999 FEW052/// BKN210/// BKN230/// ///TCU 24/13 Q1003 TEMPO VRB20G40KT 2000 TSRA SCT010 BKN050CB


Station Type Date Time Source
LFLY Decoded METAR 2020/06/03 16:30 UTC NOAA

Lyon / Bron, France (LFLY) 45-43N 004-57E 201M
Jun 03, 2020 - 12:30 PM EDT / 2020.06.03 1630 UTC
Wind: from the SW (220 degrees) at 15 MPH (13 KT) (direction variable):0
Visibility: greater than 7 mile(s):0
Sky conditions: mostly cloudy
Weather: Cumulonimbus clouds, towering cumulus clouds observed
Temperature: 75 F (24 C)
Dew Point: 55 F (13 C)
Relative Humidity: 50%
Pressure (altimeter): 29.62 in. Hg (1003 hPa)
ob: LFLY 031630Z AUTO 22013KT 180V240 9999 FEW052/// BKN210/// BKN230/// ///TCU 24/13 Q1003 TEMPO VRB20G40KT 2000 TSRA SCT010 BKN050CB
cycle: 16

Station Type Date Time Source
LFLY TAF 2020/06/03 12:21 UTC NOAA

TAF LFLY 031100Z 0312/0412 20010KT 9999 FEW065TCU
TEMPO 0312/0403 VRB15G25KT 4000 SHRA BKN050TCU PROB40
TEMPO 0312/0324 VRB20G40KT 2000 TSRA SCT010 BKN050CB PROB30
TEMPO 0312/0319 TSGR

Example: see airport list